sensor_id;sensor_type;location;lat;lon;timestamp;P1;durP1;ratioP1;P2;durP2;ratioP2
69008;SDS011;56065;52.472;13.380;2023-05-20T00:00:22;8.33;;;2.60;;
69008;SDS011;56065;52.472;13.380;2023-05-20T00:02:48;7.27;;;2.20;;
69008;SDS011;56065;52.472;13.380;2023-05-20T00:05:13;6.30;;;2.40;;
69008;SDS011;56065;52.472;13.380;2023-05-20T00:07:39;6.60;;;2.30;;
69008;SDS011;56065;52.472;13.380;2023-05-20T00:10:05;7.18;;;2.45;;
69008;SDS011;56065;52.472;13.380;2023-05-20T00:12:30;7.75;;;2.30;;
69008;SDS011;56065;52.472;13.380;2023-05-20T00:14:56;7.10;;;2.13;;
69008;SDS011;56065;52.472;13.380;2023-05-20T00:17:21;7.23;;;2.50;;
69008;SDS011;56065;52.472;13.380;2023-05-20T00:19:46;5.70;;;2.00;;
69008;SDS011;56065;52.472;13.380;2023-05-20T00:22:12;7.03;;;2.10;;
69008;SDS011;56065;52.472;13.380;2023-05-20T00:24:37;7.65;;;2.35;;
69008;SDS011;56065;52.472;13.380;2023-05-20T00:27:02;7.40;;;2.77;;
69008;SDS011;56065;52.472;13.380;2023-05-20T00:29:28;7.37;;;2.30;;
69008;SDS011;56065;52.472;13.380;2023-05-20T00:31:54;8.10;;;2.15;;
69008;SDS011;56065;52.472;13.380;2023-05-20T00:34:19;6.33;;;2.50;;
69008;SDS011;56065;52.472;13.380;2023-05-20T00:36:45;6.50;;;2.50;;
69008;SDS011;56065;52.472;13.380;2023-05-20T00:39:10;7.87;;;2.50;;
69008;SDS011;56065;52.472;13.380;2023-05-20T00:41:36;7.93;;;2.58;;
69008;SDS011;56065;52.472;13.380;2023-05-20T00:44:02;6.03;;;2.07;;
69008;SDS011;56065;52.472;13.380;2023-05-20T00:46:27;6.93;;;2.20;;
69008;SDS011;56065;52.472;13.380;2023-05-20T00:48:53;6.60;;;2.00;;
69008;SDS011;56065;52.472;13.380;2023-05-20T00:51:19;6.57;;;2.50;;
69008;SDS011;56065;52.472;13.380;2023-05-20T00:53:45;6.40;;;2.35;;
69008;SDS011;56065;52.472;13.380;2023-05-20T00:56:11;6.53;;;2.00;;
69008;SDS011;56065;52.472;13.380;2023-05-20T00:58:36;6.45;;;2.28;;
69008;SDS011;56065;52.472;13.380;2023-05-20T01:01:02;7.40;;;2.40;;
69008;SDS011;56065;52.472;13.380;2023-05-20T01:03:28;8.15;;;2.78;;
69008;SDS011;56065;52.472;13.380;2023-05-20T01:05:53;7.67;;;2.60;;
69008;SDS011;56065;52.472;13.380;2023-05-20T01:08:19;7.63;;;2.70;;
69008;SDS011;56065;52.472;13.380;2023-05-20T01:10:46;8.30;;;2.35;;
69008;SDS011;56065;52.472;13.380;2023-05-20T01:13:16;8.43;;;2.60;;
69008;SDS011;56065;52.472;13.380;2023-05-20T01:15:45;7.88;;;2.33;;
69008;SDS011;56065;52.472;13.380;2023-05-20T01:18:13;8.05;;;2.53;;
69008;SDS011;56065;52.472;13.380;2023-05-20T01:20:42;7.57;;;2.53;;
69008;SDS011;56065;52.472;13.380;2023-05-20T01:23:12;6.60;;;2.50;;
69008;SDS011;56065;52.472;13.380;2023-05-20T01:25:39;7.05;;;2.90;;
69008;SDS011;56065;52.472;13.380;2023-05-20T01:28:06;6.80;;;2.80;;
69008;SDS011;56065;52.472;13.380;2023-05-20T01:30:33;11.63;;;2.50;;
69008;SDS011;56065;52.472;13.380;2023-05-20T01:33:08;7.20;;;2.72;;
69008;SDS011;56065;52.472;13.380;2023-05-20T01:35:36;8.30;;;2.70;;
69008;SDS011;56065;52.472;13.380;2023-05-20T01:38:04;7.68;;;2.92;;
69008;SDS011;56065;52.472;13.380;2023-05-20T01:40:31;10.75;;;2.70;;
69008;SDS011;56065;52.472;13.380;2023-05-20T01:42:57;8.07;;;2.47;;
69008;SDS011;56065;52.472;13.380;2023-05-20T01:45:24;9.45;;;2.97;;
69008;SDS011;56065;52.472;13.380;2023-05-20T01:47:49;7.50;;;2.80;;
69008;SDS011;56065;52.472;13.380;2023-05-20T01:50:15;7.20;;;2.63;;
69008;SDS011;56065;52.472;13.380;2023-05-20T01:52:40;8.90;;;3.20;;
69008;SDS011;56065;52.472;13.380;2023-05-20T01:55:06;8.20;;;2.47;;
69008;SDS011;56065;52.472;13.380;2023-05-20T01:57:31;9.10;;;2.70;;
69008;SDS011;56065;52.472;13.380;2023-05-20T01:59:57;8.57;;;2.73;;
69008;SDS011;56065;52.472;13.380;2023-05-20T02:02:22;10.43;;;2.60;;
69008;SDS011;56065;52.472;13.380;2023-05-20T02:04:48;7.93;;;3.23;;
69008;SDS011;56065;52.472;13.380;2023-05-20T02:07:15;7.43;;;2.88;;
69008;SDS011;56065;52.472;13.380;2023-05-20T02:09:42;7.60;;;2.47;;
69008;SDS011;56065;52.472;13.380;2023-05-20T02:12:08;8.05;;;2.78;;
69008;SDS011;56065;52.472;13.380;2023-05-20T02:14:35;6.47;;;2.60;;
69008;SDS011;56065;52.472;13.380;2023-05-20T02:17:00;9.57;;;2.90;;
69008;SDS011;56065;52.472;13.380;2023-05-20T02:19:27;8.98;;;2.53;;
69008;SDS011;56065;52.472;13.380;2023-05-20T02:21:52;8.13;;;2.47;;
69008;SDS011;56065;52.472;13.380;2023-05-20T02:24:17;7.37;;;2.87;;
69008;SDS011;56065;52.472;13.380;2023-05-20T02:26:45;8.48;;;2.80;;
69008;SDS011;56065;52.472;13.380;2023-05-20T02:29:10;8.33;;;3.23;;
69008;SDS011;56065;52.472;13.380;2023-05-20T02:31:36;9.73;;;3.20;;
69008;SDS011;56065;52.472;13.380;2023-05-20T02:34:01;7.23;;;2.77;;
69008;SDS011;56065;52.472;13.380;2023-05-20T02:36:28;9.73;;;3.20;;
69008;SDS011;56065;52.472;13.380;2023-05-20T02:38:53;9.07;;;2.58;;
69008;SDS011;56065;52.472;13.380;2023-05-20T02:41:20;11.07;;;2.80;;
69008;SDS011;56065;52.472;13.380;2023-05-20T02:43:46;7.55;;;2.60;;
69008;SDS011;56065;52.472;13.380;2023-05-20T02:46:11;8.67;;;2.93;;
69008;SDS011;56065;52.472;13.380;2023-05-20T02:48:37;9.03;;;2.60;;
69008;SDS011;56065;52.472;13.380;2023-05-20T02:51:02;7.57;;;2.60;;
69008;SDS011;56065;52.472;13.380;2023-05-20T02:53:27;9.10;;;2.50;;
69008;SDS011;56065;52.472;13.380;2023-05-20T02:55:53;7.70;;;2.97;;
69008;SDS011;56065;52.472;13.380;2023-05-20T02:58:18;7.35;;;2.88;;
69008;SDS011;56065;52.472;13.380;2023-05-20T03:00:50;7.50;;;2.70;;
69008;SDS011;56065;52.472;13.380;2023-05-20T03:03:18;8.55;;;3.00;;
69008;SDS011;56065;52.472;13.380;2023-05-20T03:05:43;7.27;;;2.63;;
69008;SDS011;56065;52.472;13.380;2023-05-20T03:08:10;8.73;;;2.88;;
69008;SDS011;56065;52.472;13.380;2023-05-20T03:10:36;8.30;;;2.60;;
69008;SDS011;56065;52.472;13.380;2023-05-20T03:13:06;8.77;;;3.05;;
69008;SDS011;56065;52.472;13.380;2023-05-20T03:15:33;8.33;;;3.00;;
69008;SDS011;56065;52.472;13.380;2023-05-20T03:18:02;9.82;;;2.85;;
69008;SDS011;56065;52.472;13.380;2023-05-20T03:20:29;8.13;;;2.67;;
69008;SDS011;56065;52.472;13.380;2023-05-20T03:22:54;9.15;;;2.75;;
69008;SDS011;56065;52.472;13.380;2023-05-20T03:25:21;7.17;;;3.07;;
69008;SDS011;56065;52.472;13.380;2023-05-20T03:27:46;8.10;;;3.15;;
69008;SDS011;56065;52.472;13.380;2023-05-20T03:30:11;8.60;;;3.00;;
69008;SDS011;56065;52.472;13.380;2023-05-20T03:32:38;8.45;;;3.17;;
69008;SDS011;56065;52.472;13.380;2023-05-20T03:35:03;9.53;;;3.50;;
69008;SDS011;56065;52.472;13.380;2023-05-20T03:37:29;8.60;;;3.17;;
69008;SDS011;56065;52.472;13.380;2023-05-20T03:39:55;9.17;;;2.70;;
69008;SDS011;56065;52.472;13.380;2023-05-20T03:42:20;7.53;;;2.80;;
69008;SDS011;56065;52.472;13.380;2023-05-20T03:44:45;8.23;;;3.17;;
69008;SDS011;56065;52.472;13.380;2023-05-20T03:47:10;7.87;;;3.47;;
69008;SDS011;56065;52.472;13.380;2023-05-20T03:49:36;9.83;;;3.27;;
69008;SDS011;56065;52.472;13.380;2023-05-20T03:52:01;9.68;;;2.90;;
69008;SDS011;56065;52.472;13.380;2023-05-20T03:54:27;6.93;;;3.00;;
69008;SDS011;56065;52.472;13.380;2023-05-20T03:56:55;8.05;;;3.05;;
69008;SDS011;56065;52.472;13.380;2023-05-20T03:59:20;11.07;;;3.10;;
69008;SDS011;56065;52.472;13.380;2023-05-20T04:01:46;8.07;;;3.10;;
69008;SDS011;56065;52.472;13.380;2023-05-20T04:04:12;10.90;;;3.20;;
69008;SDS011;56065;52.472;13.380;2023-05-20T04:06:37;10.00;;;3.53;;
69008;SDS011;56065;52.472;13.380;2023-05-20T04:09:04;8.77;;;3.50;;
69008;SDS011;56065;52.472;13.380;2023-05-20T04:11:30;9.63;;;3.30;;
69008;SDS011;56065;52.472;13.380;2023-05-20T04:13:55;7.63;;;2.73;;
69008;SDS011;56065;52.472;13.380;2023-05-20T04:16:22;9.10;;;3.38;;
69008;SDS011;56065;52.472;13.380;2023-05-20T04:18:47;12.13;;;3.70;;
69008;SDS011;56065;52.472;13.380;2023-05-20T04:21:13;8.32;;;2.92;;
69008;SDS011;56065;52.472;13.380;2023-05-20T04:23:38;8.93;;;3.00;;
69008;SDS011;56065;52.472;13.380;2023-05-20T04:26:04;10.37;;;3.33;;
69008;SDS011;56065;52.472;13.380;2023-05-20T04:28:29;8.87;;;3.70;;
69008;SDS011;56065;52.472;13.380;2023-05-20T04:31:00;7.27;;;2.90;;
69008;SDS011;56065;52.472;13.380;2023-05-20T04:33:29;8.40;;;3.17;;
69008;SDS011;56065;52.472;13.380;2023-05-20T04:35:54;8.38;;;3.08;;
69008;SDS011;56065;52.472;13.380;2023-05-20T04:38:22;9.32;;;3.28;;
69008;SDS011;56065;52.472;13.380;2023-05-20T04:40:53;8.63;;;3.33;;
69008;SDS011;56065;52.472;13.380;2023-05-20T04:43:21;9.10;;;2.90;;
69008;SDS011;56065;52.472;13.380;2023-05-20T04:45:47;8.98;;;3.88;;
69008;SDS011;56065;52.472;13.380;2023-05-20T04:48:13;7.83;;;3.23;;
69008;SDS011;56065;52.472;13.380;2023-05-20T04:50:38;10.87;;;3.07;;
69008;SDS011;56065;52.472;13.380;2023-05-20T04:53:04;10.50;;;3.30;;
69008;SDS011;56065;52.472;13.380;2023-05-20T04:55:29;8.60;;;3.30;;
69008;SDS011;56065;52.472;13.380;2023-05-20T04:57:55;8.88;;;3.40;;
69008;SDS011;56065;52.472;13.380;2023-05-20T05:00:21;8.27;;;3.27;;
69008;SDS011;56065;52.472;13.380;2023-05-20T05:02:47;8.93;;;3.30;;
69008;SDS011;56065;52.472;13.380;2023-05-20T05:05:12;9.63;;;3.27;;
69008;SDS011;56065;52.472;13.380;2023-05-20T05:07:38;8.40;;;3.28;;
69008;SDS011;56065;52.472;13.380;2023-05-20T05:10:03;10.53;;;3.20;;
69008;SDS011;56065;52.472;13.380;2023-05-20T05:12:29;8.50;;;3.00;;
69008;SDS011;56065;52.472;13.380;2023-05-20T05:14:54;9.50;;;3.40;;
69008;SDS011;56065;52.472;13.380;2023-05-20T05:17:21;11.37;;;3.83;;
69008;SDS011;56065;52.472;13.380;2023-05-20T05:19:46;7.97;;;3.47;;
69008;SDS011;56065;52.472;13.380;2023-05-20T05:22:12;11.80;;;3.58;;
69008;SDS011;56065;52.472;13.380;2023-05-20T05:24:37;8.77;;;3.67;;
69008;SDS011;56065;52.472;13.380;2023-05-20T05:27:03;9.87;;;3.37;;
69008;SDS011;56065;52.472;13.380;2023-05-20T05:29:28;11.13;;;3.73;;
69008;SDS011;56065;52.472;13.380;2023-05-20T05:31:53;10.27;;;3.73;;
69008;SDS011;56065;52.472;13.380;2023-05-20T05:34:19;9.00;;;3.27;;
69008;SDS011;56065;52.472;13.380;2023-05-20T05:36:44;10.63;;;3.37;;
69008;SDS011;56065;52.472;13.380;2023-05-20T05:39:10;11.07;;;3.90;;
69008;SDS011;56065;52.472;13.380;2023-05-20T05:41:35;11.70;;;3.85;;
69008;SDS011;56065;52.472;13.380;2023-05-20T05:44:01;10.13;;;3.90;;
69008;SDS011;56065;52.472;13.380;2023-05-20T05:46:26;9.63;;;3.87;;
69008;SDS011;56065;52.472;13.380;2023-05-20T05:48:51;10.83;;;3.83;;
69008;SDS011;56065;52.472;13.380;2023-05-20T05:51:17;10.10;;;3.80;;
69008;SDS011;56065;52.472;13.380;2023-05-20T05:53:42;10.15;;;3.97;;
69008;SDS011;56065;52.472;13.380;2023-05-20T05:56:08;12.20;;;3.40;;
69008;SDS011;56065;52.472;13.380;2023-05-20T05:58:33;11.63;;;3.93;;
69008;SDS011;56065;52.472;13.380;2023-05-20T06:00:59;10.38;;;3.88;;
69008;SDS011;56065;52.472;13.380;2023-05-20T06:03:24;10.70;;;4.53;;
69008;SDS011;56065;52.472;13.380;2023-05-20T06:05:49;13.67;;;4.50;;
69008;SDS011;56065;52.472;13.380;2023-05-20T06:08:16;10.07;;;4.30;;
69008;SDS011;56065;52.472;13.380;2023-05-20T06:10:45;9.07;;;3.90;;
69008;SDS011;56065;52.472;13.380;2023-05-20T06:13:12;9.38;;;3.97;;
69008;SDS011;56065;52.472;13.380;2023-05-20T06:15:38;9.37;;;4.10;;
69008;SDS011;56065;52.472;13.380;2023-05-20T06:18:04;12.27;;;4.88;;
69008;SDS011;56065;52.472;13.380;2023-05-20T06:20:29;11.03;;;4.20;;
69008;SDS011;56065;52.472;13.380;2023-05-20T06:22:55;12.33;;;4.10;;
69008;SDS011;56065;52.472;13.380;2023-05-20T06:25:20;8.63;;;4.37;;
69008;SDS011;56065;52.472;13.380;2023-05-20T06:27:47;14.93;;;4.97;;
69008;SDS011;56065;52.472;13.380;2023-05-20T06:30:12;11.27;;;4.57;;
69008;SDS011;56065;52.472;13.380;2023-05-20T06:32:38;8.48;;;3.90;;
69008;SDS011;56065;52.472;13.380;2023-05-20T06:35:03;16.03;;;4.50;;
69008;SDS011;56065;52.472;13.380;2023-05-20T06:37:29;15.90;;;5.10;;
69008;SDS011;56065;52.472;13.380;2023-05-20T06:39:54;15.95;;;5.25;;
69008;SDS011;56065;52.472;13.380;2023-05-20T06:42:20;11.33;;;4.77;;
69008;SDS011;56065;52.472;13.380;2023-05-20T06:44:45;13.77;;;4.70;;
69008;SDS011;56065;52.472;13.380;2023-05-20T06:47:13;9.75;;;3.85;;
69008;SDS011;56065;52.472;13.380;2023-05-20T06:49:40;10.07;;;4.30;;
69008;SDS011;56065;52.472;13.380;2023-05-20T06:52:06;12.60;;;4.78;;
69008;SDS011;56065;52.472;13.380;2023-05-20T06:54:32;11.87;;;4.30;;
69008;SDS011;56065;52.472;13.380;2023-05-20T06:56:59;11.82;;;4.50;;
69008;SDS011;56065;52.472;13.380;2023-05-20T06:59:25;13.37;;;4.17;;
69008;SDS011;56065;52.472;13.380;2023-05-20T07:01:50;12.27;;;4.70;;
69008;SDS011;56065;52.472;13.380;2023-05-20T07:04:16;9.35;;;4.00;;
69008;SDS011;56065;52.472;13.380;2023-05-20T07:06:41;9.93;;;4.30;;
69008;SDS011;56065;52.472;13.380;2023-05-20T07:09:06;11.27;;;4.47;;
69008;SDS011;56065;52.472;13.380;2023-05-20T07:11:32;12.67;;;4.70;;
69008;SDS011;56065;52.472;13.380;2023-05-20T07:13:57;11.30;;;4.87;;
69008;SDS011;56065;52.472;13.380;2023-05-20T07:16:22;9.65;;;4.78;;
69008;SDS011;56065;52.472;13.380;2023-05-20T07:18:48;10.53;;;4.73;;
69008;SDS011;56065;52.472;13.380;2023-05-20T07:21:13;10.60;;;4.50;;
69008;SDS011;56065;52.472;13.380;2023-05-20T07:23:38;11.30;;;4.77;;
69008;SDS011;56065;52.472;13.380;2023-05-20T07:26:04;12.20;;;4.80;;
69008;SDS011;56065;52.472;13.380;2023-05-20T07:28:29;11.27;;;4.30;;
69008;SDS011;56065;52.472;13.380;2023-05-20T07:30:55;9.43;;;4.33;;
69008;SDS011;56065;52.472;13.380;2023-05-20T07:33:21;14.40;;;5.15;;
69008;SDS011;56065;52.472;13.380;2023-05-20T07:35:47;9.33;;;4.23;;
69008;SDS011;56065;52.472;13.380;2023-05-20T07:38:12;9.77;;;4.07;;
69008;SDS011;56065;52.472;13.380;2023-05-20T07:40:38;13.95;;;3.90;;
69008;SDS011;56065;52.472;13.380;2023-05-20T07:43:05;8.90;;;3.70;;
69008;SDS011;56065;52.472;13.380;2023-05-20T07:45:33;9.50;;;4.03;;
69008;SDS011;56065;52.472;13.380;2023-05-20T07:48:00;10.43;;;3.88;;
69008;SDS011;56065;52.472;13.380;2023-05-20T07:50:26;10.07;;;3.87;;
69008;SDS011;56065;52.472;13.380;2023-05-20T07:52:51;8.93;;;4.07;;
69008;SDS011;56065;52.472;13.380;2023-05-20T07:55:16;9.97;;;3.60;;
69008;SDS011;56065;52.472;13.380;2023-05-20T07:57:42;9.73;;;4.40;;
69008;SDS011;56065;52.472;13.380;2023-05-20T08:00:08;8.93;;;4.18;;
69008;SDS011;56065;52.472;13.380;2023-05-20T08:02:33;8.33;;;4.30;;
69008;SDS011;56065;52.472;13.380;2023-05-20T08:04:59;10.60;;;4.07;;
69008;SDS011;56065;52.472;13.380;2023-05-20T08:07:24;7.13;;;3.50;;
69008;SDS011;56065;52.472;13.380;2023-05-20T08:09:50;10.53;;;4.17;;
69008;SDS011;56065;52.472;13.380;2023-05-20T08:12:15;8.67;;;3.70;;
69008;SDS011;56065;52.472;13.380;2023-05-20T08:14:40;9.17;;;3.70;;
69008;SDS011;56065;52.472;13.380;2023-05-20T08:17:07;9.65;;;4.13;;
69008;SDS011;56065;52.472;13.380;2023-05-20T08:19:32;8.60;;;4.00;;
69008;SDS011;56065;52.472;13.380;2023-05-20T08:21:58;8.40;;;3.75;;
69008;SDS011;56065;52.472;13.380;2023-05-20T08:24:23;8.33;;;3.97;;
69008;SDS011;56065;52.472;13.380;2023-05-20T08:26:48;8.87;;;4.00;;
69008;SDS011;56065;52.472;13.380;2023-05-20T08:29:14;9.07;;;3.70;;
69008;SDS011;56065;52.472;13.380;2023-05-20T08:31:40;10.27;;;4.10;;
69008;SDS011;56065;52.472;13.380;2023-05-20T08:34:05;8.67;;;3.97;;
69008;SDS011;56065;52.472;13.380;2023-05-20T08:36:31;8.38;;;3.33;;
69008;SDS011;56065;52.472;13.380;2023-05-20T08:38:57;9.43;;;4.00;;
69008;SDS011;56065;52.472;13.380;2023-05-20T08:41:22;9.90;;;4.20;;
69008;SDS011;56065;52.472;13.380;2023-05-20T08:43:48;10.55;;;4.10;;
69008;SDS011;56065;52.472;13.380;2023-05-20T08:46:16;11.35;;;3.90;;
69008;SDS011;56065;52.472;13.380;2023-05-20T08:48:43;8.23;;;4.18;;
69008;SDS011;56065;52.472;13.380;2023-05-20T08:51:09;9.43;;;3.97;;
69008;SDS011;56065;52.472;13.380;2023-05-20T08:53:35;9.43;;;4.37;;
69008;SDS011;56065;52.472;13.380;2023-05-20T08:56:01;8.45;;;3.85;;
69008;SDS011;56065;52.472;13.380;2023-05-20T08:58:30;10.10;;;3.85;;
69008;SDS011;56065;52.472;13.380;2023-05-20T09:00:59;10.13;;;3.83;;
69008;SDS011;56065;52.472;13.380;2023-05-20T09:03:25;9.55;;;4.28;;
69008;SDS011;56065;52.472;13.380;2023-05-20T09:05:51;8.65;;;3.60;;
69008;SDS011;56065;52.472;13.380;2023-05-20T09:08:17;9.50;;;3.90;;
69008;SDS011;56065;52.472;13.380;2023-05-20T09:10:42;8.20;;;4.00;;
69008;SDS011;56065;52.472;13.380;2023-05-20T09:13:08;9.73;;;4.13;;
69008;SDS011;56065;52.472;13.380;2023-05-20T09:15:35;11.10;;;4.20;;
69008;SDS011;56065;52.472;13.380;2023-05-20T09:18:01;10.10;;;4.73;;
69008;SDS011;56065;52.472;13.380;2023-05-20T09:20:27;10.35;;;4.43;;
69008;SDS011;56065;52.472;13.380;2023-05-20T09:22:57;8.88;;;4.50;;
69008;SDS011;56065;52.472;13.380;2023-05-20T09:25:24;10.75;;;4.63;;
69008;SDS011;56065;52.472;13.380;2023-05-20T09:27:49;9.80;;;4.60;;
69008;SDS011;56065;52.472;13.380;2023-05-20T09:30:18;9.47;;;4.63;;
69008;SDS011;56065;52.472;13.380;2023-05-20T09:32:43;10.57;;;4.43;;
69008;SDS011;56065;52.472;13.380;2023-05-20T09:35:12;12.07;;;5.33;;
69008;SDS011;56065;52.472;13.380;2023-05-20T09:37:38;14.80;;;4.97;;
69008;SDS011;56065;52.472;13.380;2023-05-20T09:40:06;9.95;;;4.95;;
69008;SDS011;56065;52.472;13.380;2023-05-20T09:42:41;10.98;;;4.50;;
69008;SDS011;56065;52.472;13.380;2023-05-20T09:45:20;12.35;;;5.00;;
69008;SDS011;56065;52.472;13.380;2023-05-20T09:47:51;10.97;;;5.40;;
69008;SDS011;56065;52.472;13.380;2023-05-20T09:50:18;11.85;;;5.32;;
69008;SDS011;56065;52.472;13.380;2023-05-20T09:52:45;11.40;;;5.63;;
69008;SDS011;56065;52.472;13.380;2023-05-20T09:55:16;10.95;;;5.60;;
69008;SDS011;56065;52.472;13.380;2023-05-20T09:57:43;11.50;;;5.95;;
69008;SDS011;56065;52.472;13.380;2023-05-20T10:00:09;11.30;;;5.40;;
69008;SDS011;56065;52.472;13.380;2023-05-20T10:02:38;10.95;;;5.60;;
69008;SDS011;56065;52.472;13.380;2023-05-20T10:05:06;12.85;;;5.35;;
69008;SDS011;56065;52.472;13.380;2023-05-20T10:21:55;13.85;;;6.03;;
69008;SDS011;56065;52.472;13.380;2023-05-20T10:24:37;13.38;;;6.57;;
69008;SDS011;56065;52.472;13.380;2023-05-20T10:27:08;13.47;;;6.10;;
69008;SDS011;56065;52.472;13.380;2023-05-20T10:29:45;10.68;;;5.45;;
69008;SDS011;56065;52.472;13.380;2023-05-20T10:35:03;13.73;;;6.82;;
69008;SDS011;56065;52.472;13.380;2023-05-20T10:37:39;13.85;;;6.38;;
69008;SDS011;56065;52.472;13.380;2023-05-20T10:40:06;13.53;;;5.87;;
69008;SDS011;56065;52.472;13.380;2023-05-20T10:42:34;10.38;;;5.20;;
69008;SDS011;56065;52.472;13.380;2023-05-20T10:44:59;10.87;;;5.60;;
69008;SDS011;56065;52.472;13.380;2023-05-20T10:47:25;11.48;;;6.13;;
69008;SDS011;56065;52.472;13.380;2023-05-20T10:49:51;10.83;;;5.53;;
69008;SDS011;56065;52.472;13.380;2023-05-20T10:52:16;10.73;;;6.03;;
69008;SDS011;56065;52.472;13.380;2023-05-20T10:54:43;12.10;;;5.50;;
69008;SDS011;56065;52.472;13.380;2023-05-20T10:57:10;10.68;;;5.70;;
69008;SDS011;56065;52.472;13.380;2023-05-20T10:59:35;11.20;;;5.70;;
69008;SDS011;56065;52.472;13.380;2023-05-20T11:02:01;11.75;;;5.88;;
69008;SDS011;56065;52.472;13.380;2023-05-20T11:04:27;12.33;;;6.50;;
69008;SDS011;56065;52.472;13.380;2023-05-20T11:06:53;11.48;;;6.55;;
69008;SDS011;56065;52.472;13.380;2023-05-20T11:09:20;14.25;;;7.15;;
69008;SDS011;56065;52.472;13.380;2023-05-20T11:11:46;11.60;;;6.07;;
69008;SDS011;56065;52.472;13.380;2023-05-20T11:14:12;12.13;;;6.73;;
69008;SDS011;56065;52.472;13.380;2023-05-20T11:16:38;12.05;;;6.18;;
69008;SDS011;56065;52.472;13.380;2023-05-20T11:19:08;12.55;;;6.20;;
69008;SDS011;56065;52.472;13.380;2023-05-20T11:21:42;13.85;;;6.90;;
69008;SDS011;56065;52.472;13.380;2023-05-20T11:24:08;11.88;;;7.45;;
69008;SDS011;56065;52.472;13.380;2023-05-20T11:26:33;12.30;;;6.33;;
69008;SDS011;56065;52.472;13.380;2023-05-20T11:28:59;14.93;;;6.20;;
69008;SDS011;56065;52.472;13.380;2023-05-20T11:31:25;13.10;;;7.70;;
69008;SDS011;56065;52.472;13.380;2023-05-20T11:33:50;11.90;;;7.07;;
69008;SDS011;56065;52.472;13.380;2023-05-20T11:36:16;12.25;;;6.30;;
69008;SDS011;56065;52.472;13.380;2023-05-20T11:38:42;12.03;;;6.40;;
69008;SDS011;56065;52.472;13.380;2023-05-20T11:41:11;11.27;;;6.85;;
69008;SDS011;56065;52.472;13.380;2023-05-20T11:43:36;12.20;;;6.97;;
69008;SDS011;56065;52.472;13.380;2023-05-20T11:46:01;12.73;;;6.10;;
69008;SDS011;56065;52.472;13.380;2023-05-20T11:48:29;11.70;;;6.60;;
69008;SDS011;56065;52.472;13.380;2023-05-20T11:50:55;12.70;;;5.97;;
69008;SDS011;56065;52.472;13.380;2023-05-20T11:53:21;12.60;;;6.10;;
69008;SDS011;56065;52.472;13.380;2023-05-20T11:55:52;10.63;;;5.97;;
69008;SDS011;56065;52.472;13.380;2023-05-20T11:58:19;10.63;;;5.85;;
69008;SDS011;56065;52.472;13.380;2023-05-20T12:00:50;11.50;;;6.00;;
69008;SDS011;56065;52.472;13.380;2023-05-20T12:03:15;12.50;;;5.90;;
69008;SDS011;56065;52.472;13.380;2023-05-20T12:05:41;11.40;;;5.70;;
69008;SDS011;56065;52.472;13.380;2023-05-20T12:08:07;14.57;;;6.65;;
69008;SDS011;56065;52.472;13.380;2023-05-20T12:10:33;11.45;;;6.18;;
69008;SDS011;56065;52.472;13.380;2023-05-20T12:12:58;10.87;;;6.13;;
69008;SDS011;56065;52.472;13.380;2023-05-20T12:15:24;10.05;;;5.95;;
69008;SDS011;56065;52.472;13.380;2023-05-20T12:17:51;11.65;;;6.35;;
69008;SDS011;56065;52.472;13.380;2023-05-20T12:20:18;11.87;;;6.90;;
69008;SDS011;56065;52.472;13.380;2023-05-20T12:22:45;10.73;;;6.65;;
69008;SDS011;56065;52.472;13.380;2023-05-20T12:25:11;10.07;;;6.10;;
69008;SDS011;56065;52.472;13.380;2023-05-20T12:27:38;13.30;;;6.43;;
69008;SDS011;56065;52.472;13.380;2023-05-20T12:30:04;13.47;;;6.80;;
69008;SDS011;56065;52.472;13.380;2023-05-20T12:32:30;11.02;;;6.22;;
69008;SDS011;56065;52.472;13.380;2023-05-20T12:34:55;11.47;;;5.60;;
69008;SDS011;56065;52.472;13.380;2023-05-20T12:37:21;10.67;;;6.53;;
69008;SDS011;56065;52.472;13.380;2023-05-20T12:39:46;12.53;;;6.53;;
69008;SDS011;56065;52.472;13.380;2023-05-20T12:42:12;10.53;;;6.73;;
69008;SDS011;56065;52.472;13.380;2023-05-20T12:44:37;11.37;;;5.93;;
69008;SDS011;56065;52.472;13.380;2023-05-20T12:47:02;12.23;;;6.30;;
69008;SDS011;56065;52.472;13.380;2023-05-20T12:49:28;12.63;;;5.93;;
69008;SDS011;56065;52.472;13.380;2023-05-20T12:51:53;10.57;;;6.25;;
69008;SDS011;56065;52.472;13.380;2023-05-20T12:54:19;10.17;;;5.83;;
69008;SDS011;56065;52.472;13.380;2023-05-20T12:56:44;10.07;;;5.90;;
69008;SDS011;56065;52.472;13.380;2023-05-20T12:59:11;9.88;;;5.97;;
69008;SDS011;56065;52.472;13.380;2023-05-20T13:01:38;12.15;;;7.20;;
69008;SDS011;56065;52.472;13.380;2023-05-20T13:04:04;12.55;;;6.05;;
69008;SDS011;56065;52.472;13.380;2023-05-20T13:06:29;10.30;;;5.97;;
69008;SDS011;56065;52.472;13.380;2023-05-20T13:08:55;9.30;;;5.25;;
69008;SDS011;56065;52.472;13.380;2023-05-20T13:11:21;11.00;;;5.67;;
69008;SDS011;56065;52.472;13.380;2023-05-20T13:13:46;11.37;;;5.97;;
69008;SDS011;56065;52.472;13.380;2023-05-20T13:16:12;11.23;;;6.10;;
69008;SDS011;56065;52.472;13.380;2023-05-20T13:18:37;11.73;;;6.10;;
69008;SDS011;56065;52.472;13.380;2023-05-20T13:21:02;12.87;;;6.80;;
69008;SDS011;56065;52.472;13.380;2023-05-20T13:23:28;11.60;;;6.37;;
69008;SDS011;56065;52.472;13.380;2023-05-20T13:25:53;12.30;;;6.53;;
69008;SDS011;56065;52.472;13.380;2023-05-20T13:28:18;9.87;;;6.17;;
69008;SDS011;56065;52.472;13.380;2023-05-20T13:30:44;9.85;;;5.90;;
69008;SDS011;56065;52.472;13.380;2023-05-20T13:33:10;15.40;;;7.53;;
69008;SDS011;56065;52.472;13.380;2023-05-20T13:35:35;12.47;;;6.83;;
69008;SDS011;56065;52.472;13.380;2023-05-20T13:38:01;10.53;;;5.33;;
69008;SDS011;56065;52.472;13.380;2023-05-20T13:40:26;13.48;;;5.70;;
69008;SDS011;56065;52.472;13.380;2023-05-20T13:42:51;10.63;;;6.93;;
69008;SDS011;56065;52.472;13.380;2023-05-20T13:45:18;10.18;;;5.30;;
69008;SDS011;56065;52.472;13.380;2023-05-20T13:47:43;11.00;;;5.80;;
69008;SDS011;56065;52.472;13.380;2023-05-20T13:50:09;9.37;;;5.60;;
69008;SDS011;56065;52.472;13.380;2023-05-20T13:52:35;8.38;;;5.35;;
69008;SDS011;56065;52.472;13.380;2023-05-20T13:55:00;9.97;;;5.17;;
69008;SDS011;56065;52.472;13.380;2023-05-20T13:57:25;9.10;;;5.27;;
69008;SDS011;56065;52.472;13.380;2023-05-20T13:59:51;9.10;;;5.40;;
69008;SDS011;56065;52.472;13.380;2023-05-20T14:02:16;14.77;;;5.83;;
69008;SDS011;56065;52.472;13.380;2023-05-20T14:04:42;10.40;;;5.77;;
69008;SDS011;56065;52.472;13.380;2023-05-20T14:07:09;10.47;;;5.87;;
69008;SDS011;56065;52.472;13.380;2023-05-20T14:09:34;9.45;;;5.10;;
69008;SDS011;56065;52.472;13.380;2023-05-20T14:12:00;10.50;;;5.60;;
69008;SDS011;56065;52.472;13.380;2023-05-20T14:14:26;10.18;;;5.50;;
69008;SDS011;56065;52.472;13.380;2023-05-20T14:16:51;9.03;;;5.23;;
69008;SDS011;56065;52.472;13.380;2023-05-20T14:19:16;14.17;;;8.83;;
69008;SDS011;56065;52.472;13.380;2023-05-20T14:21:42;9.17;;;5.77;;
69008;SDS011;56065;52.472;13.380;2023-05-20T14:24:07;8.50;;;4.77;;
69008;SDS011;56065;52.472;13.380;2023-05-20T14:26:32;12.70;;;5.20;;
69008;SDS011;56065;52.472;13.380;2023-05-20T14:28:58;11.60;;;5.00;;
69008;SDS011;56065;52.472;13.380;2023-05-20T14:31:25;9.00;;;5.28;;
69008;SDS011;56065;52.472;13.380;2023-05-20T14:33:50;9.82;;;6.32;;
69008;SDS011;56065;52.472;13.380;2023-05-20T14:36:16;10.27;;;5.17;;
69008;SDS011;56065;52.472;13.380;2023-05-20T14:38:41;11.50;;;5.60;;